createdAt,value
2017-08-08T00:00:28.657Z,1034.71
2017-08-08T00:01:28.651Z,1034.69
2017-08-08T00:02:28.649Z,1034.69
2017-08-08T00:03:28.644Z,1034.65
2017-08-08T00:04:28.635Z,1034.65
2017-08-08T00:05:28.649Z,1034.61
2017-08-08T00:06:28.626Z,1034.61
2017-08-08T00:07:28.623Z,1034.65
2017-08-08T00:08:28.622Z,1034.66
2017-08-08T00:09:28.613Z,1034.62
2017-08-08T00:10:28.607Z,1034.63
2017-08-08T00:11:28.607Z,1034.61
2017-08-08T00:12:28.601Z,1034.6
2017-08-08T00:13:28.597Z,1034.59
2017-08-08T00:14:28.587Z,1034.55
2017-08-08T00:15:28.586Z,1034.57
2017-08-08T00:16:28.582Z,1034.51
2017-08-08T00:17:28.578Z,1034.53
2017-08-08T00:18:28.570Z,1034.53
2017-08-08T00:19:28.568Z,1034.53
2017-08-08T00:20:28.561Z,1034.49
2017-08-08T00:21:28.553Z,1034.49
2017-08-08T00:22:28.548Z,1034.46
2017-08-08T00:23:28.546Z,1034.43
2017-08-08T00:24:28.545Z,1034.45
2017-08-08T00:25:28.534Z,1034.4
2017-08-08T00:26:28.531Z,1034.34
2017-08-08T00:27:28.529Z,1034.33
2017-08-08T00:28:28.522Z,1034.29
2017-08-08T00:29:28.520Z,1034.31
2017-08-08T00:30:28.517Z,1034.28
2017-08-08T00:31:28.508Z,1034.3
2017-08-08T00:32:28.501Z,1034.3
2017-08-08T00:33:28.498Z,1034.3
2017-08-08T00:34:28.490Z,1034.32
2017-08-08T00:35:28.489Z,1034.36
2017-08-08T00:36:28.485Z,1034.34
2017-08-08T00:37:28.480Z,1034.32
2017-08-08T00:38:28.475Z,1034.37
2017-08-08T00:39:28.471Z,1034.31
2017-08-08T00:40:28.459Z,1034.34
2017-08-08T00:41:28.458Z,1034.35
2017-08-08T00:42:28.455Z,1034.38
2017-08-08T00:43:28.446Z,1034.35
2017-08-08T00:44:28.444Z,1034.36
2017-08-08T00:45:28.441Z,1034.37
2017-08-08T00:46:28.432Z,1034.37
2017-08-08T00:47:28.429Z,1034.39
2017-08-08T00:48:28.444Z,1034.36
2017-08-08T00:49:28.417Z,1034.33
2017-08-08T00:50:28.410Z,1034.31
2017-08-08T00:51:28.410Z,1034.3
2017-08-08T00:52:28.401Z,1034.27
2017-08-08T00:53:28.397Z,1034.2
2017-08-08T00:54:28.393Z,1034.22
2017-08-08T00:55:28.390Z,1034.19
2017-08-08T00:56:28.385Z,1034.2
2017-08-08T00:57:28.376Z,1034.22
2017-08-08T00:58:28.376Z,1034.24
2017-08-08T00:59:28.365Z,1034.22
2017-08-08T01:00:28.366Z,1034.27
2017-08-08T01:01:28.355Z,1034.22
2017-08-08T01:02:28.352Z,1034.23
2017-08-08T01:03:28.347Z,1034.22
2017-08-08T01:04:28.343Z,1034.21
2017-08-08T01:05:28.336Z,1034.19
2017-08-08T01:06:28.333Z,1034.14
2017-08-08T01:07:28.330Z,1034.11
2017-08-08T01:08:28.324Z,1034.1
2017-08-08T01:09:28.315Z,1034.09
2017-08-08T01:10:28.312Z,1034.07
2017-08-08T01:11:28.307Z,1034.03
2017-08-08T01:12:28.305Z,1034.04
2017-08-08T01:13:28.302Z,1033.98
2017-08-08T01:14:28.293Z,1033.96
2017-08-08T01:15:28.289Z,1033.97
2017-08-08T01:16:28.283Z,1033.95
2017-08-08T01:17:28.273Z,1033.96
2017-08-08T01:18:28.274Z,1033.93
2017-08-08T01:19:28.271Z,1033.98
2017-08-08T01:20:28.260Z,1033.95
2017-08-08T01:21:28.256Z,1033.92
2017-08-08T01:22:28.253Z,1033.93
2017-08-08T01:23:28.243Z,1033.94
2017-08-08T01:24:28.242Z,1033.96
2017-08-08T01:25:28.238Z,1033.97
2017-08-08T01:26:28.231Z,1033.92
2017-08-08T01:27:28.223Z,1033.91
2017-08-08T01:28:28.218Z,1033.9
2017-08-08T01:29:28.216Z,1033.86
2017-08-08T01:30:28.212Z,1033.85
2017-08-08T01:31:28.205Z,1033.88
2017-08-08T01:32:28.210Z,1033.88
2017-08-08T01:34:28.191Z,1033.91
2017-08-08T01:35:28.189Z,1033.92
2017-08-08T01:36:28.177Z,1033.92
2017-08-08T01:37:28.175Z,1033.93
2017-08-08T01:38:28.166Z,1033.91
2017-08-08T01:39:28.163Z,1033.89
2017-08-08T01:40:28.159Z,1033.85
2017-08-08T01:41:28.154Z,1033.87
2017-08-08T01:42:28.152Z,1033.87
2017-08-08T01:43:28.147Z,1033.9
2017-08-08T01:44:28.139Z,1033.86
2017-08-08T01:45:28.135Z,1033.89
2017-08-08T01:46:28.130Z,1033.86
2017-08-08T01:47:28.124Z,1033.88
2017-08-08T01:48:28.119Z,1033.88
2017-08-08T01:49:28.110Z,1033.86
2017-08-08T01:50:28.106Z,1033.84
2017-08-08T01:51:28.098Z,1033.83
2017-08-08T01:52:28.096Z,1033.81
2017-08-08T01:53:28.093Z,1033.82
2017-08-08T01:54:28.087Z,1033.8
2017-08-08T01:55:28.081Z,1033.8
2017-08-08T01:56:28.077Z,1033.8
2017-08-08T01:57:28.072Z,1033.8
2017-08-08T01:58:28.065Z,1033.81
2017-08-08T01:59:28.061Z,1033.78
2017-08-08T02:00:28.058Z,1033.78
2017-08-08T02:01:28.050Z,1033.8
2017-08-08T02:02:28.048Z,1033.8
2017-08-08T02:03:28.042Z,1033.81
2017-08-08T02:04:28.038Z,1033.78
2017-08-08T02:05:28.032Z,1033.79
2017-08-08T02:06:28.025Z,1033.8
2017-08-08T02:07:28.022Z,1033.8
2017-08-08T02:08:28.016Z,1033.82
2017-08-08T02:09:28.009Z,1033.83
2017-08-08T02:10:28.007Z,1033.85
2017-08-08T02:11:28.002Z,1033.81
2017-08-08T02:12:27.994Z,1033.79
2017-08-08T02:13:27.992Z,1033.8
2017-08-08T02:14:27.986Z,1033.81
2017-08-08T02:15:27.983Z,1033.82
2017-08-08T02:16:27.973Z,1033.82
2017-08-08T02:17:27.966Z,1033.81
2017-08-08T02:18:27.966Z,1033.83
2017-08-08T02:19:27.960Z,1033.79
2017-08-08T02:20:27.955Z,1033.81
2017-08-08T02:21:27.946Z,1033.77
2017-08-08T02:22:27.947Z,1033.74
2017-08-08T02:23:27.941Z,1033.74
2017-08-08T02:24:27.934Z,1033.78
2017-08-08T02:25:27.929Z,1033.73
2017-08-08T02:26:27.920Z,1033.76
2017-08-08T02:27:27.918Z,1033.69
2017-08-08T02:28:27.912Z,1033.71
2017-08-08T02:29:27.910Z,1033.73
2017-08-08T02:30:27.905Z,1033.72
2017-08-08T02:31:27.900Z,1033.72
2017-08-08T02:32:27.891Z,1033.73
2017-08-08T02:33:27.884Z,1033.71
2017-08-08T02:34:27.883Z,1033.73
2017-08-08T02:35:27.874Z,1033.71
2017-08-08T02:36:27.874Z,1033.71
2017-08-08T02:37:27.862Z,1033.7
2017-08-08T02:38:27.859Z,1033.68
2017-08-08T02:39:27.855Z,1033.71
2017-08-08T02:40:27.850Z,1033.7
2017-08-08T02:41:27.844Z,1033.73
2017-08-08T02:42:27.839Z,1033.71
2017-08-08T02:43:27.832Z,1033.72
2017-08-08T02:44:27.831Z,1033.7
2017-08-08T02:45:27.824Z,1033.7
2017-08-08T02:46:27.814Z,1033.7
2017-08-08T02:47:27.813Z,1033.67
2017-08-08T02:48:27.812Z,1033.69
2017-08-08T02:49:27.805Z,1033.65
2017-08-08T02:50:27.800Z,1033.67
2017-08-08T02:51:27.795Z,1033.64
2017-08-08T02:52:27.790Z,1033.63
2017-08-08T02:53:27.782Z,1033.68
2017-08-08T02:54:27.780Z,1033.65
2017-08-08T02:55:27.771Z,1033.67
2017-08-08T02:56:27.767Z,1033.68
2017-08-08T02:57:27.762Z,1033.67
2017-08-08T02:58:27.758Z,1033.63
2017-08-08T02:59:27.752Z,1033.66
2017-08-08T03:00:27.747Z,1033.7
2017-08-08T03:01:27.737Z,1033.69
2017-08-08T03:02:27.733Z,1033.7
2017-08-08T03:03:27.727Z,1033.67
2017-08-08T03:04:27.726Z,1033.7
2017-08-08T03:05:27.720Z,1033.64
2017-08-08T03:06:27.710Z,1033.62
2017-08-08T03:07:27.708Z,1033.62
2017-08-08T03:08:27.700Z,1033.6
2017-08-08T03:09:27.700Z,1033.6
2017-08-08T03:10:27.692Z,1033.61
2017-08-08T03:11:27.689Z,1033.65
2017-08-08T03:12:27.680Z,1033.64
2017-08-08T03:13:27.678Z,1033.69
2017-08-08T03:14:27.670Z,1033.61
2017-08-08T03:15:27.664Z,1033.66
2017-08-08T03:16:27.662Z,1033.6
2017-08-08T03:17:27.653Z,1033.61
2017-08-08T03:18:27.653Z,1033.58
2017-08-08T03:19:27.642Z,1033.55
2017-08-08T03:20:27.641Z,1033.54
2017-08-08T03:21:27.632Z,1033.52
2017-08-08T03:22:27.641Z,1033.5
2017-08-08T03:23:27.622Z,1033.53
2017-08-08T03:24:27.617Z,1033.49
2017-08-08T03:25:27.614Z,1033.52
2017-08-08T03:26:27.605Z,1033.47
2017-08-08T03:27:27.600Z,1033.49
2017-08-08T03:28:27.596Z,1033.49
2017-08-08T03:29:27.591Z,1033.54
2017-08-08T03:30:27.583Z,1033.52
2017-08-08T03:31:27.580Z,1033.52
2017-08-08T03:32:27.572Z,1033.5
2017-08-08T03:33:27.569Z,1033.45
2017-08-08T03:34:27.564Z,1033.46
2017-08-08T03:35:27.562Z,1033.43
2017-08-08T03:36:27.550Z,1033.43
2017-08-08T03:37:27.548Z,1033.39
2017-08-08T03:38:27.546Z,1033.39
2017-08-08T03:39:27.542Z,1033.45
2017-08-08T03:40:27.530Z,1033.4
2017-08-08T03:41:27.527Z,1033.37
2017-08-08T03:42:27.521Z,1033.36
2017-08-08T03:43:27.515Z,1033.37
2017-08-08T03:44:27.507Z,1033.35
2017-08-08T03:45:27.508Z,1033.38
2017-08-08T03:46:27.499Z,1033.41
2017-08-08T03:47:27.497Z,1033.42
2017-08-08T03:48:27.491Z,1033.42
2017-08-08T03:49:27.485Z,1033.42
2017-08-08T03:50:27.479Z,1033.4
2017-08-08T03:51:27.472Z,1033.39
2017-08-08T03:52:27.469Z,1033.38
2017-08-08T03:53:27.461Z,1033.33
2017-08-08T03:54:27.456Z,1033.29
2017-08-08T03:55:27.453Z,1033.29
2017-08-08T03:56:27.444Z,1033.28
2017-08-08T03:57:27.444Z,1033.29
2017-08-08T03:58:27.437Z,1033.21
2017-08-08T03:59:27.431Z,1033.15
2017-08-08T04:00:27.424Z,1033.15
2017-08-08T04:01:27.419Z,1033.12
2017-08-08T04:02:27.413Z,1033.11
2017-08-08T04:03:27.410Z,1033.12
2017-08-08T04:04:27.406Z,1033.09
2017-08-08T04:05:27.400Z,1033.07
2017-08-08T04:06:27.395Z,1033.09
2017-08-08T04:07:27.390Z,1033.06
2017-08-08T04:08:27.388Z,1032.99
2017-08-08T04:09:27.377Z,1032.93
2017-08-08T04:10:27.374Z,1032.85
2017-08-08T04:11:27.369Z,1032.74
2017-08-08T04:12:27.364Z,1032.54
2017-08-08T04:13:27.361Z,1032.37
2017-08-08T04:14:27.354Z,1032.21
2017-08-08T04:15:27.350Z,1032.09
2017-08-08T04:16:27.342Z,1032.07
2017-08-08T04:17:27.339Z,1032.15
2017-08-08T04:18:27.331Z,1032.14
2017-08-08T04:19:27.330Z,1032.15
2017-08-08T04:20:27.326Z,1032.11
2017-08-08T04:21:27.319Z,1032
2017-08-08T04:22:27.316Z,1031.87
2017-08-08T04:23:27.312Z,1031.65
2017-08-08T04:24:27.303Z,1031.54
2017-08-08T04:25:27.304Z,1031.36
2017-08-08T04:26:27.303Z,1031.16
2017-08-08T04:27:27.296Z,1030.96
2017-08-08T04:28:27.293Z,1030.79
2017-08-08T04:29:27.290Z,1030.56
2017-08-08T04:30:27.283Z,1030.41
2017-08-08T04:31:27.279Z,1030.27
2017-08-08T04:32:27.273Z,1030.12
2017-08-08T04:33:27.274Z,1029.95
2017-08-08T04:34:27.272Z,1029.73
2017-08-08T04:35:27.271Z,1029.62
2017-08-08T04:36:27.263Z,1029.49
2017-08-08T04:37:27.266Z,1029.33
2017-08-08T04:38:27.261Z,1029.23
2017-08-08T04:39:27.259Z,1029.1
2017-08-08T04:40:27.251Z,1029.04
2017-08-08T04:41:27.255Z,1028.86
2017-08-08T04:42:27.252Z,1028.75
2017-08-08T04:43:27.253Z,1028.6
2017-08-08T04:44:27.254Z,1028.49
2017-08-08T04:45:27.251Z,1028.39
2017-08-08T04:46:27.252Z,1028.24
2017-08-08T04:47:27.250Z,1028.15
2017-08-08T04:48:27.250Z,1028.06
2017-08-08T04:49:27.244Z,1027.99
2017-08-08T04:50:27.248Z,1027.89
2017-08-08T04:51:27.246Z,1027.73
2017-08-08T04:52:27.501Z,1027.65
2017-08-08T04:53:27.248Z,1027.49
2017-08-08T04:54:27.250Z,1027.6
2017-08-08T04:55:27.252Z,1027.71
2017-08-08T04:56:27.258Z,1027.63
2017-08-08T04:57:27.256Z,1027.6
2017-08-08T04:58:27.261Z,1027.57
2017-08-08T04:59:27.261Z,1027.49
2017-08-08T05:00:27.266Z,1027.36
2017-08-08T05:01:27.269Z,1027.29
2017-08-08T05:02:27.271Z,1027.32
2017-08-08T05:03:27.275Z,1027.47
2017-08-08T05:04:27.279Z,1027.6
2017-08-08T05:05:27.276Z,1027.7
2017-08-08T05:06:27.284Z,1027.55
2017-08-08T05:07:27.294Z,1027.39
2017-08-08T05:08:27.289Z,1027.19
2017-08-08T05:09:27.292Z,1027.16
2017-08-08T05:10:27.295Z,1027.08
2017-08-08T05:11:27.302Z,1026.97
2017-08-08T05:12:27.306Z,1026.88
2017-08-08T05:13:27.312Z,1026.92
2017-08-08T05:14:27.317Z,1026.87
2017-08-08T05:15:27.317Z,1026.76
2017-08-08T05:16:27.321Z,1026.69
2017-08-08T05:17:27.329Z,1026.55
2017-08-08T05:18:27.334Z,1026.51
2017-08-08T05:19:27.340Z,1026.43
2017-08-08T05:20:27.344Z,1026.33
2017-08-08T05:21:27.352Z,1026.3
2017-08-08T05:22:27.356Z,1026.2
2017-08-08T05:23:27.359Z,1026.14
2017-08-08T05:24:27.368Z,1026.03
2017-08-08T05:25:27.374Z,1025.98
2017-08-08T05:26:27.379Z,1025.98
2017-08-08T05:27:27.383Z,1025.94
2017-08-08T05:28:27.394Z,1025.87
2017-08-08T05:29:27.398Z,1025.88
2017-08-08T05:30:27.407Z,1025.87
2017-08-08T05:31:27.411Z,1025.82
2017-08-08T05:32:27.419Z,1025.74
2017-08-08T05:33:27.433Z,1025.65
2017-08-08T05:34:27.435Z,1025.68
2017-08-08T05:35:27.441Z,1025.67
2017-08-08T05:36:27.446Z,1025.62
2017-08-08T05:37:27.457Z,1025.66
2017-08-08T05:38:27.463Z,1025.74
2017-08-08T05:39:27.475Z,1025.75
2017-08-08T05:40:27.479Z,1025.71
2017-08-08T05:41:27.490Z,1025.72
2017-08-08T05:42:27.498Z,1025.64
2017-08-08T05:43:27.508Z,1025.62
2017-08-08T05:44:27.812Z,1025.65
2017-08-08T05:45:27.524Z,1025.62
2017-08-08T05:46:27.539Z,1025.63
2017-08-08T05:47:27.541Z,1025.67
2017-08-08T05:48:27.549Z,1025.66
2017-08-08T05:49:27.556Z,1025.62
2017-08-08T05:50:27.564Z,1025.65
2017-08-08T05:51:27.572Z,1025.66
2017-08-08T05:52:27.580Z,1025.76
2017-08-08T05:53:27.592Z,1025.85
2017-08-08T05:54:27.602Z,1025.97
2017-08-08T05:55:27.609Z,1025.99
2017-08-08T05:56:27.619Z,1025.96
2017-08-08T05:57:27.627Z,1025.92
2017-08-08T05:58:27.634Z,1025.9
2017-08-08T05:59:27.642Z,1025.9
2017-08-08T06:00:27.653Z,1025.92
2017-08-08T06:01:27.659Z,1025.77
2017-08-08T06:02:27.668Z,1025.83
2017-08-08T06:03:27.679Z,1025.9
2017-08-08T06:04:27.687Z,1025.94
2017-08-08T06:05:27.698Z,1025.9
2017-08-08T06:06:27.706Z,1025.81
2017-08-08T06:07:27.712Z,1025.66
2017-08-08T06:08:27.725Z,1025.63
2017-08-08T06:09:27.732Z,1025.65
2017-08-08T06:10:27.740Z,1025.6
2017-08-08T06:11:27.750Z,1025.63
2017-08-08T06:12:27.760Z,1025.51
2017-08-08T06:13:27.769Z,1025.86
2017-08-08T06:14:27.778Z,1025.76
2017-08-08T06:15:27.788Z,1025.5
2017-08-08T06:16:27.996Z,1025.45
2017-08-08T06:17:27.801Z,1025.53
2017-08-08T06:18:27.815Z,1025.63
2017-08-08T06:19:27.826Z,1025.75
2017-08-08T06:20:27.834Z,1025.88
2017-08-08T06:21:27.841Z,1025.99
2017-08-08T06:22:27.854Z,1026.11
2017-08-08T06:23:27.860Z,1026.2
2017-08-08T06:24:27.871Z,1026.51
2017-08-08T06:25:27.878Z,1026.35
2017-08-08T06:26:27.886Z,1026.25
2017-08-08T06:27:27.894Z,1026.12
2017-08-08T06:28:27.906Z,1026.04
2017-08-08T06:29:27.909Z,1025.96
2017-08-08T06:30:27.921Z,1025.9
2017-08-08T06:31:27.932Z,1025.75
2017-08-08T06:32:27.938Z,1025.52
2017-08-08T06:33:27.951Z,1025.72
2017-08-08T06:34:27.959Z,1025.89
2017-08-08T06:35:27.967Z,1025.86
2017-08-08T06:36:27.974Z,1025.93
2017-08-08T06:37:27.984Z,1025.79
2017-08-08T06:38:27.989Z,1025.83
2017-08-08T06:39:28.002Z,1025.87
2017-08-08T06:40:28.012Z,1025.84
2017-08-08T06:41:28.018Z,1025.86
2017-08-08T06:42:28.032Z,1025.97
2017-08-08T06:43:28.038Z,1026.16
2017-08-08T06:44:28.046Z,1026.22
2017-08-08T06:45:28.059Z,1026.38
2017-08-08T06:46:28.061Z,1026.26
2017-08-08T06:47:28.080Z,1026.15
2017-08-08T06:48:28.080Z,1026.01
2017-08-08T06:49:28.099Z,1025.89
2017-08-08T06:50:28.096Z,1025.78
2017-08-08T06:51:28.104Z,1025.64
2017-08-08T06:52:28.116Z,1025.55
2017-08-08T06:53:28.124Z,1025.41
2017-08-08T06:54:28.137Z,1025.39
2017-08-08T06:55:28.141Z,1025.26
2017-08-08T06:56:28.148Z,1025.13
2017-08-08T06:57:28.157Z,1024.88
2017-08-08T06:58:28.168Z,1024.78
2017-08-08T06:59:28.175Z,1024.77
2017-08-08T07:00:28.182Z,1024.79
2017-08-08T07:01:28.196Z,1024.77
2017-08-08T07:02:28.203Z,1024.6
2017-08-08T07:03:28.216Z,1024.55
2017-08-08T07:04:28.221Z,1024.35
2017-08-08T07:05:28.433Z,1023.94
2017-08-08T07:07:28.249Z,1023.7
2017-08-08T07:08:28.258Z,1023.46
2017-08-08T07:09:28.263Z,1023.3
2017-08-08T07:10:28.278Z,1023.26
2017-08-08T07:11:28.289Z,1023.12
2017-08-08T07:12:28.300Z,1023.09
2017-08-08T07:13:28.313Z,1022.96
2017-08-08T07:14:28.321Z,1022.75
2017-08-08T07:15:28.325Z,1022.89
2017-08-08T07:16:28.338Z,1022.82
2017-08-08T07:17:28.348Z,1022.72
2017-08-08T07:18:28.365Z,1022.7
2017-08-08T07:19:28.371Z,1022.8
2017-08-08T07:20:28.384Z,1022.65
2017-08-08T07:21:28.397Z,1022.65
2017-08-08T07:22:28.408Z,1022.61
2017-08-08T07:23:28.416Z,1022.6
2017-08-08T07:24:28.431Z,1022.59
2017-08-08T07:25:28.444Z,1022.48
2017-08-08T07:26:28.453Z,1022.44
2017-08-08T07:27:28.466Z,1022.47
2017-08-08T07:28:28.476Z,1022.49
2017-08-08T07:29:28.486Z,1022.48
2017-08-08T07:30:28.502Z,1022.46
2017-08-08T07:31:28.514Z,1022.37
2017-08-08T07:32:28.526Z,1022.34
2017-08-08T07:33:28.541Z,1022.43
2017-08-08T07:34:28.546Z,1022.4
2017-08-08T07:35:28.560Z,1022.37
2017-08-08T07:36:28.571Z,1022.48
2017-08-08T07:37:28.585Z,1022.46
2017-08-08T07:38:28.601Z,1022.57
2017-08-08T07:39:28.612Z,1022.51
2017-08-08T07:40:28.625Z,1022.43
2017-08-08T07:41:28.637Z,1022.37
2017-08-08T07:42:28.647Z,1022.36
2017-08-08T07:43:28.663Z,1022.3
2017-08-08T07:44:28.673Z,1022.3
2017-08-08T07:45:28.687Z,1022.32
2017-08-08T07:46:28.700Z,1022.29
2017-08-08T07:47:28.708Z,1022.19
2017-08-08T07:48:28.723Z,1022.16
2017-08-08T07:49:28.734Z,1022.18
2017-08-08T07:50:28.753Z,1022.23
2017-08-08T07:51:28.765Z,1022.12
2017-08-08T07:52:28.775Z,1022.12
2017-08-08T07:53:28.787Z,1022.35
2017-08-08T07:54:28.800Z,1022.13
2017-08-08T07:55:28.818Z,1021.89
2017-08-08T07:56:28.828Z,1021.72
2017-08-08T07:57:28.844Z,1021.5
2017-08-08T07:58:28.861Z,1021.46
2017-08-08T07:59:28.867Z,1021.42
2017-08-08T08:00:28.886Z,1021.34
2017-08-08T08:01:28.897Z,1021.23
2017-08-08T08:02:28.913Z,1020.99
2017-08-08T08:03:28.929Z,1020.78
2017-08-08T08:04:28.941Z,1020.57
2017-08-08T08:05:28.959Z,1020.42
2017-08-08T08:06:28.977Z,1020.25
2017-08-08T08:07:28.989Z,1020.09
2017-08-08T08:08:29.005Z,1020.01
2017-08-08T08:09:29.018Z,1019.88
2017-08-08T08:10:29.041Z,1019.98
2017-08-08T08:11:29.052Z,1020.16
2017-08-08T08:12:29.068Z,1020.39
2017-08-08T08:13:29.085Z,1020.69
2017-08-08T08:14:29.097Z,1020.97
2017-08-08T08:15:29.115Z,1021.26
2017-08-08T08:16:29.130Z,1021.52
2017-08-08T08:17:29.145Z,1021.66
2017-08-08T08:18:29.158Z,1021.71
2017-08-08T08:19:29.178Z,1021.85
2017-08-08T08:20:29.189Z,1022.19
2017-08-08T08:21:29.209Z,1022.36
2017-08-08T08:22:29.220Z,1022.74
2017-08-08T08:23:29.239Z,1023.01
2017-08-08T08:24:29.255Z,1023.07
2017-08-08T08:25:29.266Z,1023.13
2017-08-08T08:26:29.277Z,1023.23
2017-08-08T08:27:29.296Z,1023.22
2017-08-08T08:28:29.310Z,1023.44
2017-08-08T08:29:29.323Z,1023.52
2017-08-08T08:30:29.334Z,1023.57
2017-08-08T08:31:29.347Z,1023.61
2017-08-08T08:32:29.359Z,1023.71
2017-08-08T08:33:29.371Z,1023.66
2017-08-08T08:34:29.385Z,1023.65
2017-08-08T08:35:29.397Z,1023.57
2017-08-08T08:36:29.410Z,1023.59
2017-08-08T08:37:29.421Z,1023.66
2017-08-08T08:38:29.434Z,1023.75
2017-08-08T08:39:29.442Z,1023.83
2017-08-08T08:40:29.457Z,1023.88
2017-08-08T08:41:29.470Z,1023.81
2017-08-08T08:42:29.483Z,1023.84
2017-08-08T08:43:29.488Z,1023.95
2017-08-08T08:44:29.499Z,1024.27
2017-08-08T08:45:29.511Z,1024.76
2017-08-08T08:46:29.529Z,1025.29
2017-08-08T08:47:29.533Z,1025.55
2017-08-08T08:48:29.548Z,1025.74
2017-08-08T08:49:29.557Z,1025.99
2017-08-08T08:50:29.562Z,1026.18
2017-08-08T08:51:29.578Z,1026.29
2017-08-08T08:52:29.582Z,1026.42
2017-08-08T08:53:29.595Z,1026.57
2017-08-08T08:54:29.600Z,1026.68
2017-08-08T08:55:29.615Z,1026.76
2017-08-08T08:56:29.624Z,1026.9
2017-08-08T08:57:29.631Z,1026.92
2017-08-08T08:58:29.639Z,1027.03
2017-08-08T08:59:29.649Z,1027.04
2017-08-08T09:00:29.655Z,1027.05
2017-08-08T09:01:29.665Z,1027.11
2017-08-08T09:02:29.669Z,1027.1
2017-08-08T09:03:29.679Z,1027.08
2017-08-08T09:04:29.681Z,1027.1
2017-08-08T09:05:29.689Z,1027.2
2017-08-08T09:06:29.696Z,1027.23
2017-08-08T09:07:29.706Z,1027.3
2017-08-08T09:08:29.708Z,1027.36
2017-08-08T09:09:29.717Z,1027.35
2017-08-08T09:10:29.722Z,1027.35
2017-08-08T09:11:29.726Z,1027.33
2017-08-08T09:12:29.730Z,1027.36
2017-08-08T09:13:29.741Z,1027.34
2017-08-08T09:14:29.746Z,1027.34
2017-08-08T09:15:29.756Z,1027.3
2017-08-08T09:16:29.758Z,1027.3
2017-08-08T09:17:29.761Z,1027.42
2017-08-08T09:18:29.762Z,1027.35
2017-08-08T09:19:29.772Z,1027.38
2017-08-08T09:20:29.779Z,1027.41
2017-08-08T09:21:29.780Z,1027.42
2017-08-08T09:22:29.784Z,1027.47
2017-08-08T09:23:29.793Z,1027.46
2017-08-08T09:24:29.793Z,1027.48
2017-08-08T09:25:29.802Z,1027.4
2017-08-08T09:26:29.806Z,1027.55
2017-08-08T09:27:29.805Z,1027.44
2017-08-08T09:28:29.812Z,1027.44
2017-08-08T09:29:29.820Z,1027.57
2017-08-08T09:30:29.821Z,1027.61
2017-08-08T09:31:29.822Z,1027.63
2017-08-08T09:32:29.832Z,1027.69
2017-08-08T09:33:29.834Z,1027.69
2017-08-08T09:34:29.846Z,1027.71
2017-08-08T09:35:29.841Z,1027.83
2017-08-08T09:36:29.848Z,1027.77
2017-08-08T09:37:29.852Z,1027.84
2017-08-08T09:38:29.855Z,1027.85
2017-08-08T09:39:29.856Z,1027.89
2017-08-08T09:40:29.858Z,1027.85
2017-08-08T09:41:29.864Z,1027.92
2017-08-08T09:42:29.870Z,1027.8
2017-08-08T09:43:29.871Z,1027.89
2017-08-08T09:44:29.873Z,1027.8
2017-08-08T09:45:29.880Z,1027.83
2017-08-08T09:46:29.880Z,1027.79
2017-08-08T09:47:29.881Z,1027.84
2017-08-08T09:48:29.888Z,1027.8
2017-08-08T09:49:29.886Z,1027.79
2017-08-08T09:50:29.895Z,1027.77
2017-08-08T09:51:29.898Z,1027.64
2017-08-08T09:52:29.902Z,1027.64
2017-08-08T09:53:29.902Z,1027.62
2017-08-08T09:54:29.909Z,1027.59
2017-08-08T09:55:29.907Z,1027.55
2017-08-08T09:56:29.914Z,1027.51
2017-08-08T09:57:29.914Z,1027.51
2017-08-08T09:58:29.916Z,1027.5
2017-08-08T09:59:29.922Z,1027.49
2017-08-08T10:00:29.922Z,1027.45
2017-08-08T10:01:29.926Z,1027.45
2017-08-08T10:02:29.930Z,1027.45
2017-08-08T10:03:29.933Z,1027.46
2017-08-08T10:04:29.935Z,1027.41
2017-08-08T10:05:29.937Z,1027.33
2017-08-08T10:06:29.940Z,1027.28
2017-08-08T10:07:29.942Z,1027.2
2017-08-08T10:08:29.946Z,1027.26
2017-08-08T10:09:29.948Z,1027.14
2017-08-08T10:10:29.951Z,1027.08
2017-08-08T10:11:29.951Z,1027
2017-08-08T10:12:29.959Z,1026.91
2017-08-08T10:13:29.957Z,1026.82
2017-08-08T10:14:29.959Z,1026.7
2017-08-08T10:15:29.962Z,1026.64
2017-08-08T10:16:29.968Z,1026.54
2017-08-08T10:17:29.969Z,1026.57
2017-08-08T10:18:29.968Z,1026.48
2017-08-08T10:19:29.975Z,1026.45
2017-08-08T10:20:29.980Z,1026.38
2017-08-08T10:21:29.981Z,1026.28
2017-08-08T10:22:29.985Z,1026.15
2017-08-08T10:23:29.985Z,1026.24
2017-08-08T10:24:29.988Z,1026.17
2017-08-08T10:25:29.993Z,1026.15
2017-08-08T10:26:29.993Z,1026.08
2017-08-08T10:27:30.003Z,1026.03
2017-08-08T10:28:30.008Z,1025.98
2017-08-08T10:29:30.009Z,1025.92
2017-08-08T10:30:30.010Z,1026.04
2017-08-08T10:31:30.016Z,1026.03
2017-08-08T10:32:30.015Z,1025.99
2017-08-08T10:33:30.023Z,1026.03
2017-08-08T10:34:30.022Z,1026.04
2017-08-08T10:35:30.032Z,1026.12
2017-08-08T10:36:30.030Z,1026.04
2017-08-08T10:37:30.038Z,1026.02
2017-08-08T10:38:30.040Z,1026.04
2017-08-08T10:39:30.045Z,1025.97
2017-08-08T10:40:30.044Z,1025.89
2017-08-08T10:41:30.053Z,1025.86
2017-08-08T10:42:30.052Z,1025.78
2017-08-08T10:43:30.060Z,1025.9
2017-08-08T10:44:30.059Z,1025.74
2017-08-08T10:45:30.061Z,1025.86
2017-08-08T10:46:30.071Z,1025.7
2017-08-08T10:47:30.072Z,1025.75
2017-08-08T10:48:30.075Z,1025.72
2017-08-08T10:49:30.078Z,1025.62
2017-08-08T10:50:30.085Z,1025.67
2017-08-08T10:51:30.084Z,1025.67
2017-08-08T10:52:30.090Z,1025.58
2017-08-08T10:53:30.095Z,1025.62
2017-08-08T10:54:30.099Z,1025.42
2017-08-08T10:55:30.104Z,1025.57
2017-08-08T10:56:30.103Z,1025.54
2017-08-08T10:57:30.107Z,1025.63
2017-08-08T10:58:30.116Z,1025.57
2017-08-08T10:59:30.124Z,1025.62
2017-08-08T11:00:30.115Z,1025.63
2017-08-08T11:01:30.123Z,1025.57
2017-08-08T11:02:30.124Z,1025.49
2017-08-08T11:03:30.131Z,1025.41
2017-08-08T11:04:30.136Z,1025.38
2017-08-08T11:05:30.136Z,1025.36
2017-08-08T11:06:30.139Z,1025.18
2017-08-08T11:07:30.146Z,1025.09
2017-08-08T11:08:30.149Z,1025.13
2017-08-08T11:09:30.153Z,1025.04
2017-08-08T11:10:30.157Z,1024.92
2017-08-08T11:11:30.159Z,1024.9
2017-08-08T11:12:30.164Z,1024.87
2017-08-08T11:13:30.165Z,1024.79
2017-08-08T11:14:30.168Z,1024.66
2017-08-08T11:15:30.177Z,1024.64
2017-08-08T11:16:30.431Z,1024.69
2017-08-08T11:17:30.186Z,1024.86
2017-08-08T11:18:30.185Z,1024.71
2017-08-08T11:19:30.190Z,1024.72
2017-08-08T11:20:30.198Z,1024.59
2017-08-08T11:21:30.203Z,1024.75
2017-08-08T11:22:30.206Z,1024.69
2017-08-08T11:23:30.212Z,1024.66
2017-08-08T11:24:30.213Z,1024.71
2017-08-08T11:25:30.222Z,1024.7
2017-08-08T11:26:30.227Z,1024.7
2017-08-08T11:27:30.228Z,1024.68
2017-08-08T11:28:30.231Z,1024.81
2017-08-08T11:29:30.242Z,1024.71
2017-08-08T11:30:30.241Z,1024.78
2017-08-08T11:31:30.248Z,1024.65
2017-08-08T11:32:30.256Z,1024.67
2017-08-08T11:33:30.258Z,1024.66
2017-08-08T11:34:30.263Z,1024.71
2017-08-08T11:35:30.269Z,1024.68
2017-08-08T11:36:30.274Z,1024.71
2017-08-08T11:37:30.278Z,1024.72
2017-08-08T11:38:30.283Z,1024.63
2017-08-08T11:39:30.286Z,1024.53
2017-08-08T11:40:30.291Z,1024.57
2017-08-08T11:41:30.298Z,1024.43
2017-08-08T11:42:30.302Z,1024.39
2017-08-08T11:43:30.309Z,1024.3
2017-08-08T11:44:30.316Z,1024.21
2017-08-08T11:45:30.320Z,1024.07
2017-08-08T11:46:30.324Z,1023.93
2017-08-08T11:47:30.330Z,1023.79
2017-08-08T11:48:30.337Z,1023.61
2017-08-08T11:49:30.343Z,1023.56
2017-08-08T11:50:30.346Z,1023.49
2017-08-08T11:58:30.400Z,1023.58
2017-08-08T11:59:30.398Z,1023.58
2017-08-08T12:00:30.408Z,1023.6
2017-08-08T12:01:30.414Z,1023.64
2017-08-08T12:02:30.421Z,1023.63
2017-08-08T12:03:30.428Z,1023.58
2017-08-08T12:04:30.433Z,1023.65
2017-08-08T12:05:30.441Z,1023.68
2017-08-08T12:06:30.446Z,1023.71
2017-08-08T12:07:30.451Z,1023.73
2017-08-08T12:08:30.458Z,1023.76
2017-08-08T12:09:30.466Z,1023.74
2017-08-08T12:10:30.471Z,1023.75
2017-08-08T12:11:30.476Z,1023.7
2017-08-08T12:12:30.484Z,1023.72
2017-08-08T12:13:30.493Z,1023.74
2017-08-08T12:14:30.497Z,1023.73
2017-08-08T12:15:30.511Z,1023.83
2017-08-08T12:16:30.510Z,1023.82
2017-08-08T12:17:30.516Z,1023.84